Time;durP1;ratioP1;P1;durP2;ratioP2;P2;SDS_P1;SDS_P2;PMS_P1;PMS_P2;Temp;Humidity;BMP_temperature;BMP_pressure;BME280_temperature;BME280_humidity;BME280_pressure;Samples;Min_cycle;Max_cycle;Signal;HPM_P1;HPM_P2
2021/09/24 00:02:07;;;;;;;3.17;2.50;;;;;;;15.00;49.44;101590.20;1769136;80;21442;-50
2021/09/24 00:04:36;;;;;;;3.42;2.50;;;;;;;14.98;49.30;101586.76;1774039;80;21066;-51
2021/09/24 00:07:04;;;;;;;3.05;2.60;;;;;;;14.93;49.31;101577.70;1771147;80;21014;-50
2021/09/24 00:09:31;;;;;;;3.50;2.80;;;;;;;14.90;49.38;101576.92;1770116;80;21036;-50
2021/09/24 00:11:59;;;;;;;3.75;2.95;;;;;;;14.89;49.45;101579.13;1773158;80;21025;-49
2021/09/24 00:14:26;;;;;;;3.17;2.87;;;;;;;14.86;49.60;101584.46;1772976;80;21033;-49
2021/09/24 00:16:54;;;;;;;3.62;2.60;;;;;;;14.84;49.68;101579.72;1773003;80;20993;-50
2021/09/24 00:19:21;;;;;;;3.95;2.92;;;;;;;14.84;49.67;101583.64;1772916;80;21046;-50
2021/09/24 00:21:49;;;;;;;3.60;3.00;;;;;;;14.85;49.57;101584.03;1771668;80;21046;-51
2021/09/24 00:24:16;;;;;;;2.80;2.50;;;;;;;14.85;49.50;101582.72;1770135;80;21473;-50
2021/09/24 00:26:42;;;;;;;5.20;2.62;;;;;;;14.85;49.42;101581.41;1769901;80;21026;-50
2021/09/24 00:29:10;;;;;;;3.47;2.65;;;;;;;14.83;49.30;101576.66;1772226;80;21036;-50
2021/09/24 00:31:38;;;;;;;3.22;2.92;;;;;;;14.82;49.23;101577.11;1771557;80;21034;-50
2021/09/24 00:34:05;;;;;;;3.17;2.90;;;;;;;14.81;49.15;101570.61;1771104;80;21482;-50
2021/09/24 00:36:34;;;;;;;3.70;3.20;;;;;;;14.79;49.17;101572.41;1769497;80;21017;-50
2021/09/24 00:39:02;;;;;;;4.15;3.08;;;;;;;14.75;49.25;101567.70;1765597;80;21514;-50
2021/09/24 00:41:29;;;;;;;3.87;3.30;;;;;;;14.72;49.39;101568.21;1766884;80;21009;-50
2021/09/24 00:43:55;;;;;;;4.03;3.50;;;;;;;14.68;49.42;101561.76;1768739;80;21514;-50
2021/09/24 00:46:22;;;;;;;5.03;3.25;;;;;;;14.66;49.36;101559.63;1774498;80;21066;-50
2021/09/24 00:48:49;;;;;;;4.05;3.65;;;;;;;14.65;49.45;101560.52;1766982;80;21010;-50
2021/09/24 00:51:17;;;;;;;4.17;3.77;;;;;;;14.63;49.40;101554.45;1765696;80;21501;-50
2021/09/24 00:53:43;;;;;;;4.62;4.22;;;;;;;14.62;49.33;101542.27;1766498;80;20954;-50
2021/09/24 00:56:12;;;;;;;4.20;3.80;;;;;;;14.61;49.38;101544.47;1775639;80;21028;-50
2021/09/24 00:58:38;;;;;;;5.00;4.30;;;;;;;14.59;49.36;101542.34;1767523;80;20963;-51
2021/09/24 01:01:07;;;;;;;6.33;4.08;;;;;;;14.55;49.26;101540.70;1766752;80;21537;-50
2021/09/24 01:03:33;;;;;;;4.70;4.10;;;;;;;14.53;49.28;101537.26;1775968;80;21014;-50
2021/09/24 01:06:01;;;;;;;6.00;4.30;;;;;;;14.51;49.30;101530.33;1769096;80;21482;-50
2021/09/24 01:08:31;;;;;;;6.25;4.75;;;;;;;14.50;49.43;101529.50;1766924;80;21045;-50
2021/09/24 01:10:59;;;;;;;5.72;4.70;;;;;;;14.49;49.52;101526.89;1765656;80;21021;-50
2021/09/24 01:13:26;;;;;;;5.45;4.78;;;;;;;14.48;49.54;101526.06;1765769;80;21026;-50
2021/09/24 01:15:54;;;;;;;5.95;5.00;;;;;;;14.48;49.63;101527.81;1775746;80;21030;-50
2021/09/24 01:18:21;;;;;;;7.28;5.60;;;;;;;14.48;49.68;101524.75;1767569;80;21069;-50
2021/09/24 01:20:51;;;;;;;6.10;5.28;;;;;;;14.49;49.56;101529.07;1768848;80;21057;-51
2021/09/24 01:23:17;;;;;;;7.45;5.30;;;;;;;14.48;49.53;101523.44;1766189;80;20993;-50
2021/09/24 01:25:46;;;;;;;5.47;4.67;;;;;;;14.46;49.48;101521.31;1765718;80;21533;-50
2021/09/24 01:28:12;;;;;;;5.80;5.30;;;;;;;14.45;49.49;101523.50;1767964;80;21045;-50
2021/09/24 01:30:39;;;;;;;6.67;5.17;;;;;;;14.42;49.62;101520.11;1768947;80;21022;-50
2021/09/24 01:33:07;;;;;;;5.53;5.03;;;;;;;14.41;49.71;101523.17;1768945;80;21029;-50
2021/09/24 01:35:34;;;;;;;6.00;5.15;;;;;;;14.38;49.72;101518.03;1768881;80;21046;-50
2021/09/24 01:38:01;;;;;;;5.67;5.10;;;;;;;14.38;49.82;101513.23;1768992;80;21042;-50
2021/09/24 01:40:28;;;;;;;6.60;5.47;;;;;;;14.39;49.85;101518.86;1766754;80;20998;-50
2021/09/24 01:42:54;;;;;;;6.35;5.55;;;;;;;14.41;49.78;101515.76;1765930;80;20945;-50
2021/09/24 01:45:22;;;;;;;6.00;5.30;;;;;;;14.41;49.76;101508.77;1769671;80;21029;-50
2021/09/24 01:47:49;;;;;;;6.03;5.42;;;;;;;14.42;49.78;101503.95;1769206;80;21002;-50
2021/09/24 01:50:16;;;;;;;6.33;5.70;;;;;;;14.42;49.71;101505.27;1765927;80;21450;-50
2021/09/24 01:52:44;;;;;;;7.17;5.58;;;;;;;14.43;49.71;101496.50;1769795;80;21525;-50
2021/09/24 01:55:11;;;;;;;7.00;5.75;;;;;;;14.43;49.69;101500.42;1769281;80;21021;-50
2021/09/24 01:57:38;;;;;;;5.92;5.40;;;;;;;14.43;49.60;101493.88;1769504;80;20995;-51
2021/09/24 02:00:06;;;;;;;6.12;5.53;;;;;;;14.41;49.56;101485.20;1774494;80;21021;-50
2021/09/24 02:02:33;;;;;;;5.87;5.37;;;;;;;14.41;49.50;101490.44;1771373;80;21045;-51
2021/09/24 02:05:00;;;;;;;6.37;5.72;;;;;;;14.43;49.49;101486.02;1768842;80;21466;-50
2021/09/24 02:07:28;;;;;;;6.80;5.72;;;;;;;14.43;49.58;101480.78;1769805;80;21589;-50
2021/09/24 02:09:55;;;;;;;6.45;5.78;;;;;;;14.45;49.62;101472.44;1768617;80;21025;-50
2021/09/24 02:12:23;;;;;;;6.92;6.33;;;;;;;14.45;49.54;101463.27;1766901;80;21022;-50
2021/09/24 02:14:49;;;;;;;8.60;5.83;;;;;;;14.46;49.51;101457.16;1770289;80;20979;-50
2021/09/24 02:17:17;;;;;;;7.35;6.05;;;;;;;14.46;49.33;101457.16;1771323;80;21013;-50
2021/09/24 02:19:45;;;;;;;6.20;5.70;;;;;;;14.47;49.37;101452.75;1768809;80;21013;-50
2021/09/24 02:22:12;;;;;;;7.05;6.35;;;;;;;14.47;49.46;101447.52;1768644;80;21029;-50
2021/09/24 02:24:40;;;;;;;6.97;6.28;;;;;;;14.46;49.44;101444.06;1769223;80;21026;-50
2021/09/24 02:27:08;;;;;;;8.80;6.40;;;;;;;14.45;49.45;101446.25;1766665;80;21022;-50
2021/09/24 02:29:36;;;;;;;6.80;6.10;;;;;;;14.45;49.56;101448.88;1765526;80;21006;-50
2021/09/24 02:32:05;;;;;;;6.97;6.28;;;;;;;14.45;49.56;101448.88;1766308;80;21101;-50
2021/09/24 02:34:33;;;;;;;6.97;6.28;;;;;;;14.46;49.50;101444.06;1775745;80;21061;-50
2021/09/24 02:37:01;;;;;;;6.30;5.70;;;;;;;14.48;49.54;101437.02;1767852;80;21022;-50
2021/09/24 02:39:28;;;;;;;7.10;6.42;;;;;;;14.50;49.55;101439.16;1773990;80;21021;-50
2021/09/24 02:41:54;;;;;;;6.97;6.30;;;;;;;14.53;49.45;101434.25;1771486;80;20982;-49
2021/09/24 02:44:21;;;;;;;6.10;5.60;;;;;;;14.55;49.37;101429.39;1771186;80;21044;-50
2021/09/24 02:46:48;;;;;;;7.10;6.40;;;;;;;14.58;49.39;101426.70;1778913;80;20962;-50
2021/09/24 02:49:14;;;;;;;7.50;6.78;;;;;;;14.59;49.39;101423.61;1774343;80;21037;-50
2021/09/24 02:51:43;;;;;;;7.50;6.70;;;;;;;14.60;49.51;101417.48;1774595;80;21065;-50
2021/09/24 02:54:09;;;;;;;6.85;6.25;;;;;;;14.60;49.51;101418.35;1772679;80;21064;-50
2021/09/24 02:56:36;;;;;;;7.47;6.78;;;;;;;14.60;49.52;101414.42;1775941;80;21033;-50
2021/09/24 02:59:04;;;;;;;7.53;6.80;;;;;;;14.61;49.68;101408.27;1779185;80;21001;-50
2021/09/24 03:01:34;;;;;;;6.30;5.70;;;;;;;14.62;49.81;101408.69;1774332;80;21483;-50
2021/09/24 03:04:01;;;;;;;6.60;6.00;;;;;;;14.63;49.85;101407.77;1774226;80;21018;-49
2021/09/24 03:06:28;;;;;;;6.70;6.08;;;;;;;14.67;49.86;101408.09;1772539;80;21498;-50
2021/09/24 03:08:56;;;;;;;6.42;5.83;;;;;;;14.71;49.79;101410.64;1770889;80;21033;-50
2021/09/24 03:11:23;;;;;;;6.33;5.67;;;;;;;14.73;49.79;101412.77;1775820;80;21022;-50
2021/09/24 03:13:51;;;;;;;6.80;5.60;;;;;;;14.76;49.81;101404.80;1771085;80;21013;-50
2021/09/24 03:16:20;;;;;;;6.30;5.70;;;;;;;14.79;49.69;101397.73;1771322;80;21005;-50
2021/09/24 03:18:49;;;;;;;7.50;5.87;;;;;;;14.81;49.66;101395.93;1772956;80;21049;-50
2021/09/24 03:21:18;;;;;;;7.97;6.72;;;;;;;14.82;49.62;101393.70;1774238;80;21000;-50
2021/09/24 03:23:46;;;;;;;7.10;5.95;;;;;;;14.84;49.51;101396.30;1774312;80;21049;-50
2021/09/24 03:26:14;;;;;;;8.88;6.33;;;;;;;14.83;49.56;101398.50;1783734;80;21054;-50
2021/09/24 03:28:42;;;;;;;7.22;6.12;;;;;;;14.82;49.67;101390.25;1743686;80;20997;-50
2021/09/24 03:31:11;;;;;;;7.80;7.00;;;;;;;14.80;49.72;101388.95;1744207;81;21341;-50
2021/09/24 03:33:40;;;;;;;7.20;6.50;;;;;;;14.79;49.86;101384.64;1767413;80;20978;-50
2021/09/24 03:36:06;;;;;;;7.12;6.40;;;;;;;14.79;49.96;101385.95;1774576;80;20937;-51
2021/09/24 03:38:34;;;;;;;7.58;5.85;;;;;;;14.79;50.10;101383.77;1770590;80;21497;-50
2021/09/24 03:41:01;;;;;;;5.97;5.37;;;;;;;14.80;50.12;101377.61;1769522;80;21017;-50
2021/09/24 03:43:28;;;;;;;6.17;5.60;;;;;;;14.82;50.09;101373.22;1768535;80;20999;-50
2021/09/24 03:45:55;;;;;;;6.37;5.78;;;;;;;14.82;50.14;101375.36;1765822;80;21076;-50
2021/09/24 03:48:22;;;;;;;6.35;5.75;;;;;;;14.87;50.12;101375.23;1766788;80;21005;-51
2021/09/24 03:50:48;;;;;;;5.53;5.03;;;;;;;14.88;50.12;101375.66;1768436;80;21030;-50
2021/09/24 03:53:17;;;;;;;6.97;5.37;;;;;;;14.89;50.17;101372.11;1773553;80;21490;-51
2021/09/24 03:55:45;;;;;;;6.53;5.17;;;;;;;14.90;50.14;101369.44;1755225;80;21014;-50
2021/09/24 03:58:12;;;;;;;6.53;5.87;;;;;;;14.90;50.13;101365.98;1775516;80;21061;-50
2021/09/24 04:00:40;;;;;;;6.53;5.62;;;;;;;14.91;50.23;101362.45;1767387;80;21038;-51
2021/09/24 04:03:07;;;;;;;9.58;5.28;;;;;;;14.92;50.28;101356.31;1766832;80;21022;-48
2021/09/24 04:05:35;;;;;;;5.62;4.80;;;;;;;14.92;50.31;101361.08;1765576;80;21002;-49
2021/09/24 04:08:04;;;;;;;5.25;4.75;;;;;;;14.94;50.27;101361.06;1765741;80;21001;-48
2021/09/24 04:10:31;;;;;;;5.05;4.55;;;;;;;14.96;50.25;101360.56;1768537;79;21505;-48
2021/09/24 04:12:57;;;;;;;4.53;4.12;;;;;;;15.00;50.28;101359.56;1772508;80;20974;-51
2021/09/24 04:15:25;;;;;;;5.62;4.08;;;;;;;15.03;50.30;101357.70;1768457;80;21034;-48
2021/09/24 04:17:52;;;;;;;4.62;3.58;;;;;;;15.08;50.18;101357.56;1768893;80;21018;-50
2021/09/24 04:20:21;;;;;;;4.05;3.70;;;;;;;15.13;50.05;101351.70;1766262;80;21010;-51
2021/09/24 04:22:48;;;;;;;4.20;3.80;;;;;;;15.17;50.02;101359.88;1770514;80;21522;-50
2021/09/24 04:25:17;;;;;;;3.92;3.52;;;;;;;15.21;49.90;101356.26;1777524;80;21002;-51
2021/09/24 04:27:43;;;;;;;3.95;3.58;;;;;;;15.24;49.88;101342.63;1767916;80;20985;-51
2021/09/24 04:30:12;;;;;;;3.42;3.12;;;;;;;15.27;49.77;101345.61;1765713;80;21040;-50
2021/09/24 04:32:38;;;;;;;4.25;3.85;;;;;;;15.30;49.76;101346.81;1765844;80;20998;-50
2021/09/24 04:35:06;;;;;;;4.67;2.98;;;;;;;15.31;49.69;101345.92;1768483;80;21553;-50
2021/09/24 04:37:35;;;;;;;4.85;3.00;;;;;;;15.33;49.66;101347.56;1767853;80;21521;-50
2021/09/24 04:40:01;;;;;;;3.40;2.87;;;;;;;15.35;49.61;101344.44;1772138;80;21006;-50
2021/09/24 04:42:28;;;;;;;3.30;3.00;;;;;;;15.38;49.53;101340.86;1771163;80;20972;-50
2021/09/24 04:44:55;;;;;;;3.80;3.40;;;;;;;15.41;49.46;101347.34;1771065;80;21012;-50
2021/09/24 04:47:22;;;;;;;6.58;3.45;;;;;;;15.48;49.36;101339.69;1773311;80;21461;-50
2021/09/24 04:49:49;;;;;;;4.53;3.35;;;;;;;15.52;49.39;101338.67;1774338;80;21013;-50
2021/09/24 04:52:17;;;;;;;3.50;3.20;;;;;;;15.57;49.34;101336.78;1774745;80;21028;-50
2021/09/24 04:54:44;;;;;;;3.50;3.02;;;;;;;15.62;49.28;101334.01;1774743;80;21018;-50
2021/09/24 04:57:12;;;;;;;4.37;3.25;;;;;;;15.65;49.25;101330.82;1774334;80;21045;-50
2021/09/24 04:59:39;;;;;;;3.50;3.12;;;;;;;15.68;49.15;101328.55;1772526;80;21013;-51
2021/09/24 05:02:06;;;;;;;3.05;2.75;;;;;;;15.69;49.12;101315.37;1771459;80;21035;-50
2021/09/24 05:04:32;;;;;;;3.92;3.15;;;;;;;15.72;49.08;101310.05;1772251;80;21049;-50
2021/09/24 05:07:00;;;;;;;4.80;2.55;;;;;;;15.75;49.06;101309.92;1774397;80;21509;-49
2021/09/24 05:09:26;;;;;;;3.17;2.83;;;;;;;15.77;49.09;101305.47;1779845;80;20997;-49
2021/09/24 05:11:53;;;;;;;4.67;3.87;;;;;;;15.81;49.15;101296.59;1777526;80;20985;-50
2021/09/24 05:14:20;;;;;;;3.25;2.95;;;;;;;15.85;49.20;101298.19;1768645;80;21037;-49
2021/09/24 05:16:48;;;;;;;3.33;2.92;;;;;;;15.90;49.24;101303.29;1778740;80;21013;-50
2021/09/24 05:19:14;;;;;;;3.25;2.83;;;;;;;15.97;49.39;101306.11;1774457;80;21006;-50
2021/09/24 05:21:41;;;;;;;3.50;2.92;;;;;;;16.01;49.40;101306.41;1779748;80;20967;-50
2021/09/24 05:24:08;;;;;;;3.42;3.12;;;;;;;16.05;49.39;101307.53;1771208;80;21017;-51
2021/09/24 05:26:37;;;;;;;4.70;3.20;;;;;;;16.09;49.30;101305.20;1771388;80;21481;-50
2021/09/24 05:29:06;;;;;;;4.37;2.95;;;;;;;16.13;49.26;101309.45;1772593;80;21587;-49
2021/09/24 05:31:33;;;;;;;3.98;2.90;;;;;;;16.15;49.17;101311.58;1774919;80;21546;-49
2021/09/24 05:36:29;;;;;;;5.87;2.62;;;;;;;16.20;49.38;101312.25;1722775;83;21090;-50
2021/09/24 05:38:57;;;;;;;2.95;2.75;;;;;;;16.24;49.32;101319.55;1725061;83;21073;-49
2021/09/24 05:41:25;;;;;;;2.95;2.62;;;;;;;16.28;49.13;101323.33;1724378;83;20993;-49
2021/09/24 05:43:52;;;;;;;2.95;2.65;;;;;;;16.33;49.06;101320.54;1724670;83;21508;-49
2021/09/24 05:46:20;;;;;;;2.90;2.60;;;;;;;16.37;49.08;101317.34;1723227;83;21010;-49
2021/09/24 05:48:47;;;;;;;3.12;2.35;;;;;;;16.41;49.00;101314.55;1724464;83;21017;-51
2021/09/24 05:51:14;;;;;;;5.12;2.33;;;;;;;16.46;48.93;101314.39;1723681;83;21002;-48
2021/09/24 05:53:41;;;;;;;6.03;3.10;;;;;;;16.49;48.94;101317.78;1723057;83;21850;-49
2021/09/24 05:56:07;;;;;;;3.22;2.65;;;;;;;16.52;48.82;101312.88;1724253;83;21069;-52
2021/09/24 05:58:34;;;;;;;2.92;2.47;;;;;;;16.54;48.66;101314.98;1724362;83;21085;-49
2021/09/24 06:01:01;;;;;;;2.50;2.30;;;;;;;16.55;48.57;101311.47;1724641;83;20970;-50
2021/09/24 06:03:27;;;;;;;3.05;2.50;;;;;;;16.54;48.53;101311.91;1724724;83;21041;-50
2021/09/24 06:05:54;;;;;;;3.25;2.47;;;;;;;16.56;48.47;101309.22;1724934;83;20945;-51
2021/09/24 06:08:21;;;;;;;4.50;2.30;;;;;;;16.57;48.41;101320.98;1724512;83;21496;-51
2021/09/24 06:10:48;;;;;;;3.60;2.58;;;;;;;16.59;48.52;101322.26;1724690;83;21013;-52
2021/09/24 06:13:14;;;;;;;3.00;2.50;;;;;;;16.61;48.75;101319.11;1723964;83;20982;-51
2021/09/24 06:15:42;;;;;;;2.98;2.65;;;;;;;16.64;49.07;101318.98;1723440;83;21018;-47
2021/09/24 06:18:08;;;;;;;3.47;2.20;;;;;;;16.66;49.38;101326.34;1723358;83;21028;-50
2021/09/24 06:20:36;;;;;;;2.70;2.10;;;;;;;16.68;49.53;101331.09;1719664;83;21033;-51
2021/09/24 06:23:04;;;;;;;2.95;2.42;;;;;;;16.70;49.48;101334.52;1714097;83;21037;-51
2021/09/24 06:25:31;;;;;;;4.12;2.27;;;;;;;16.71;49.35;101332.30;1725063;83;21478;-51
2021/09/24 06:27:59;;;;;;;5.47;2.25;;;;;;;16.71;49.09;101333.62;1724821;83;20994;-51
2021/09/24 06:30:26;;;;;;;3.37;2.30;;;;;;;16.72;48.88;101338.80;1724995;83;21088;-50
2021/09/24 06:32:53;;;;;;;4.53;2.47;;;;;;;16.74;48.80;101341.37;1743539;80;21061;-51
2021/09/24 06:35:20;;;;;;;4.58;2.60;;;;;;;16.76;48.79;101342.16;1766273;80;21000;-50
2021/09/24 06:37:46;;;;;;;2.37;2.17;;;;;;;16.80;48.55;101349.02;1781204;80;21014;-49
2021/09/24 06:40:13;;;;;;;5.00;2.70;;;;;;;16.82;48.46;101334.05;1778200;80;21495;-51
2021/09/24 06:42:40;;;;;;;3.47;2.90;;;;;;;16.86;48.39;101340.90;1770521;80;21009;-51
2021/09/24 06:45:09;;;;;;;2.70;2.22;;;;;;;16.91;48.31;101341.59;1768606;80;21024;-51
2021/09/24 06:47:36;;;;;;;4.53;2.15;;;;;;;16.93;47.80;101338.00;1766084;80;21494;-49
2021/09/24 06:50:04;;;;;;;2.80;2.30;;;;;;;16.96;47.37;101323.89;1761472;80;20984;-52
2021/09/24 06:52:32;;;;;;;3.55;2.33;;;;;;;16.98;47.20;101327.31;1761425;80;21043;-49
2021/09/24 06:55:00;;;;;;;5.03;2.33;;;;;;;17.00;47.17;101325.00;1767523;80;21626;-49
2021/09/24 06:57:26;;;;;;;2.50;2.30;;;;;;;17.03;47.24;101320.08;1765762;80;20988;-48
2021/09/24 06:59:54;;;;;;;2.77;1.90;;;;;;;17.05;47.07;101314.30;1774354;80;21455;-50
2021/09/24 07:02:20;;;;;;;2.33;2.10;;;;;;;17.07;46.85;101321.67;1773685;80;21013;-49
2021/09/24 07:04:48;;;;;;;2.42;2.12;;;;;;;17.09;46.71;101321.16;1765960;80;21024;-50
2021/09/24 07:07:15;;;;;;;2.15;1.95;;;;;;;17.11;46.48;101312.74;1768151;80;21469;-48
2021/09/24 07:09:43;;;;;;;2.15;1.90;;;;;;;17.12;46.10;101306.58;1760604;80;21033;-49
2021/09/24 07:12:10;;;;;;;2.77;1.82;;;;;;;17.14;45.97;101311.77;1767567;80;20995;-49
2021/09/24 07:14:38;;;;;;;4.37;2.00;;;;;;;17.16;46.01;101311.25;1769460;80;21501;-50
2021/09/24 07:17:06;;;;;;;2.30;1.87;;;;;;;17.14;45.92;101300.80;1759392;80;21026;-50
2021/09/24 07:19:32;;;;;;;2.10;1.90;;;;;;;17.14;46.00;101299.48;1763409;80;20988;-50
2021/09/24 07:21:59;;;;;;;2.12;2.02;;;;;;;17.16;45.91;101290.22;1772813;80;21502;-49
2021/09/24 07:24:26;;;;;;;3.80;2.27;;;;;;;17.18;45.75;101286.61;1774589;80;20994;-48
2021/09/24 07:26:53;;;;;;;3.35;1.92;;;;;;;17.22;45.72;101272.42;1772575;80;20967;-49
2021/09/24 07:29:21;;;;;;;2.60;2.40;;;;;;;17.26;45.52;101260.85;1764153;80;21030;-50
2021/09/24 07:31:47;;;;;;;3.72;2.25;;;;;;;17.32;45.17;101259.28;1771802;80;21057;-50
2021/09/24 07:34:14;;;;;;;12.63;3.20;;;;;;;17.37;45.00;101248.09;1775593;80;20991;-49
2021/09/24 07:36:42;;;;;;;2.70;2.50;;;;;;;17.42;44.78;101247.45;1767649;80;20999;-49
2021/09/24 07:39:09;;;;;;;3.85;2.17;;;;;;;17.47;44.77;101242.87;1768299;80;21085;-49
2021/09/24 07:41:35;;;;;;;6.47;2.52;;;;;;;17.51;44.61;101239.22;1764045;80;20998;-49
2021/09/24 07:44:04;;;;;;;21.62;4.12;;;;;;;17.57;44.62;101233.69;1763067;80;20983;-50
2021/09/24 07:46:32;;;;;;;3.95;2.77;;;;;;;17.61;44.44;101224.74;1766125;80;20951;-49
2021/09/24 07:48:59;;;;;;;2.75;2.47;;;;;;;17.66;44.26;101213.54;1768048;80;20998;-51
2021/09/24 07:51:27;;;;;;;4.85;2.83;;;;;;;17.72;44.15;101203.23;1758800;80;21030;-46
2021/09/24 07:53:55;;;;;;;4.15;2.83;;;;;;;17.76;43.93;101195.09;1763171;80;20998;-51
2021/09/24 07:56:24;;;;;;;3.30;2.52;;;;;;;17.81;43.75;101200.17;1768470;80;20978;-52
2021/09/24 07:58:51;;;;;;;4.90;3.20;;;;;;;17.85;43.33;101187.27;1765475;80;21466;-51
2021/09/24 08:01:18;;;;;;;11.00;3.62;;;;;;;17.91;43.23;101180.89;1756523;80;21010;-48
2021/09/24 08:03:45;;;;;;;3.45;2.65;;;;;;;17.96;42.72;101177.56;1772781;80;21063;-51
2021/09/24 08:06:13;;;;;;;5.47;2.90;;;;;;;18.02;42.44;101168.07;1765658;80;21450;-51
2021/09/24 08:08:40;;;;;;;6.28;2.30;;;;;;;18.10;42.27;101159.35;1758294;80;21014;-49
2021/09/24 08:11:07;;;;;;;4.00;3.00;;;;;;;18.19;42.28;101148.41;1763983;80;21038;-49
2021/09/24 08:13:34;;;;;;;3.25;2.92;;;;;;;18.28;42.46;101137.45;1765894;80;20979;-48
2021/09/24 08:16:02;;;;;;;2.90;2.08;;;;;;;18.35;41.98;101123.91;1760988;80;21044;-48
2021/09/24 08:18:31;;;;;;;6.22;2.72;;;;;;;18.44;41.68;101141.09;1768810;80;20977;-49
2021/09/24 08:20:59;;;;;;;4.40;2.52;;;;;;;18.49;41.13;101133.80;1762632;80;21067;-52
2021/09/24 08:23:26;;;;;;;3.47;2.10;;;;;;;18.53;41.01;101112.50;1767660;80;21086;-53
2021/09/24 08:25:55;;;;;;;3.17;2.30;;;;;;;18.57;40.96;101121.97;1776697;80;21529;-51
2021/09/24 08:28:22;;;;;;;5.05;2.67;;;;;;;18.57;41.09;101133.82;1768184;80;20952;-50
2021/09/24 08:30:48;;;;;;;6.22;2.58;;;;;;;18.58;40.98;101141.27;1773655;80;20999;-49
2021/09/24 08:33:15;;;;;;;4.50;3.30;;;;;;;18.55;41.06;101128.23;1782130;80;21554;-51
2021/09/24 08:35:43;;;;;;;4.12;2.80;;;;;;;18.54;41.16;101116.00;1770484;80;21034;-49
2021/09/24 08:38:13;;;;;;;9.45;3.12;;;;;;;18.52;41.24;101116.53;1769011;79;21490;-50
2021/09/24 08:40:39;;;;;;;3.58;3.00;;;;;;;18.49;41.41;101096.91;1770030;80;21045;-51
2021/09/24 08:43:07;;;;;;;3.65;2.50;;;;;;;18.46;41.51;101099.25;1765452;80;21465;-53
2021/09/24 08:45:34;;;;;;;3.27;2.98;;;;;;;18.45;41.60;101092.72;1775269;80;20967;-52
2021/09/24 08:48:04;;;;;;;3.20;2.58;;;;;;;18.42;41.57;101064.69;1772512;80;20968;-50
2021/09/24 08:50:34;;;;;;;6.42;3.02;;;;;;;18.41;41.78;101048.97;1767953;80;21475;-51
2021/09/24 08:53:01;;;;;;;4.08;3.22;;;;;;;18.38;42.33;101070.22;1765257;80;21039;-51
2021/09/24 08:55:28;;;;;;;3.30;3.00;;;;;;;18.36;42.98;101095.78;1767138;80;21057;-51
2021/09/24 08:57:55;;;;;;;2.52;2.33;;;;;;;18.34;43.23;101111.64;1760923;80;21497;-49
2021/09/24 09:00:22;;;;;;;7.33;2.55;;;;;;;18.33;43.64;101110.41;1770782;80;21071;-51
2021/09/24 09:03:03;;;;;;;3.30;2.87;;;;;;;18.31;43.20;101103.04;1760896;80;21021;-51
2021/09/24 09:05:39;;;;;;;3.55;2.55;;;;;;;18.29;42.61;101096.98;1776314;80;21044;-49
2021/09/24 09:08:14;;;;;;;5.55;2.87;;;;;;;18.28;42.49;101107.98;1776397;80;21517;-48
2021/09/24 09:10:45;;;;;;;6.47;2.75;;;;;;;18.28;42.23;101111.11;1766540;80;21013;-51
2021/09/24 09:13:15;;;;;;;3.10;2.80;;;;;;;18.29;42.28;101102.26;1764636;80;21033;-49
2021/09/24 09:15:54;;;;;;;3.98;3.05;;;;;;;18.30;42.08;101096.08;1767701;80;20998;-49
2021/09/24 09:18:22;;;;;;;6.55;3.20;;;;;;;18.31;42.08;101099.09;1717647;81;21173;-51
2021/09/24 09:20:49;;;;;;;3.83;3.12;;;;;;;18.32;41.95;101098.17;1718145;83;21053;-49
2021/09/24 09:23:17;;;;;;;3.35;2.62;;;;;;;18.32;42.08;101100.81;1718633;83;21112;-50
2021/09/24 09:25:46;;;;;;;4.90;2.67;;;;;;;18.33;42.17;101086.69;1708172;83;21027;-48
2021/09/24 09:28:37;;;;;;;4.75;2.87;;;;;;;18.31;42.34;101080.19;1708826;83;21043;-49
2021/09/24 09:31:18;;;;;;;3.57;2.57;;;;;;;18.32;42.39;101073.15;1712590;83;21490;-51
2021/09/24 09:33:44;;;;;;;4.33;2.77;;;;;;;18.29;42.37;101078.55;1669161;85;21076;-51
2021/09/24 09:36:11;;;;;;;4.80;2.67;;;;;;;18.29;42.33;101065.38;1669861;85;21062;-48
2021/09/24 09:38:41;;;;;;;3.02;2.75;;;;;;;18.29;42.18;101062.75;1670533;86;21506;-51
2021/09/24 09:41:13;;;;;;;3.12;2.70;;;;;;;18.27;41.92;101052.29;1612787;89;21108;-51
2021/09/24 09:43:54;;;;;;;3.50;2.30;;;;;;;18.27;41.71;101047.48;1557886;91;21087;-50
2021/09/24 09:46:25;;;;;;;5.00;2.77;;;;;;;18.26;41.53;101042.66;1465390;97;21149;-50
2021/09/24 09:49:11;;;;;;;3.30;2.62;;;;;;;18.27;41.21;101038.26;1465540;96;21117;-49
2021/09/24 09:51:42;;;;;;;5.33;2.95;;;;;;;18.26;41.56;101041.84;1458361;98;21193;-50
2021/09/24 09:54:12;;;;;;;4.65;2.90;;;;;;;18.25;41.72;101042.30;1465046;98;21058;-50
2021/09/24 09:56:44;;;;;;;4.95;2.80;;;;;;;18.26;41.77;101047.11;1467239;96;21599;-49
2021/09/24 09:59:31;;;;;;;3.73;2.90;;;;;;;18.27;41.84;101040.89;1470804;96;21162;-52
2021/09/24 10:02:19;;;;;;;4.83;3.12;;;;;;;18.27;42.04;101031.22;1474976;96;21076;-48
2021/09/24 10:04:51;;;;;;;3.35;2.70;;;;;;;18.27;41.84;101022.45;1427925;100;21145;-50
2021/09/24 10:07:23;;;;;;;4.78;3.00;;;;;;;18.29;41.65;101026.72;1434372;99;21116;-50
2021/09/24 10:10:10;;;;;;;3.27;2.55;;;;;;;18.30;41.72;101013.92;1434809;97;21114;-50
2021/09/24 10:12:37;;;;;;;6.40;3.20;;;;;;;18.33;41.84;101001.94;1412146;102;21108;-50
2021/09/24 10:15:11;;;;;;;5.47;3.17;;;;;;;18.36;41.54;101004.89;1411690;101;21129;-50
2021/09/24 10:17:38;;;;;;;2.98;2.65;;;;;;;18.36;41.48;100985.13;1411107;101;21142;-50
2021/09/24 10:20:06;;;;;;;5.42;3.25;;;;;;;18.38;41.42;100974.88;1412651;102;21102;-50
2021/09/24 10:22:33;;;;;;;8.08;3.15;;;;;;;18.40;41.66;100984.05;1411430;100;21970;-52
2021/09/24 10:25:00;;;;;;;3.25;2.75;;;;;;;18.41;41.55;100987.05;1434907;98;21521;-49
2021/09/24 10:27:36;;;;;;;4.22;3.00;;;;;;;18.40;41.70;100980.09;1432450;99;21267;-49
2021/09/24 10:30:15;;;;;;;5.45;3.10;;;;;;;18.41;41.94;100972.56;1433454;100;21176;-51
2021/09/24 10:33:05;;;;;;;3.17;2.72;;;;;;;18.41;42.08;100969.92;1434518;99;21114;-53
2021/09/24 10:35:54;;;;;;;3.58;2.75;;;;;;;18.40;42.27;100946.67;1457260;98;21069;-50
2021/09/24 10:38:24;;;;;;;4.50;3.12;;;;;;;18.40;42.47;100941.40;1484726;94;21079;-49
2021/09/24 10:41:07;;;;;;;3.42;2.90;;;;;;;18.37;42.55;100920.50;1506877;89;21069;-49
2021/09/24 10:43:50;;;;;;;6.08;3.15;;;;;;;18.37;42.78;100915.69;1644304;86;21086;-51
2021/09/24 10:46:33;;;;;;;3.20;2.90;;;;;;;18.35;42.87;100910.95;1658215;85;21120;-51
2021/09/24 10:49:19;;;;;;;5.25;3.20;;;;;;;18.33;43.12;100908.87;1658120;86;21002;-49
2021/09/24 10:52:08;;;;;;;4.28;3.30;;;;;;;18.30;43.20;100915.14;1656524;86;21539;-49
2021/09/24 10:54:57;;;;;;;3.85;2.80;;;;;;;18.28;42.97;100917.48;1627786;88;21108;-50
2021/09/24 10:57:45;;;;;;;4.12;3.05;;;;;;;18.25;42.68;100897.87;1503744;94;21134;-51
2021/09/24 11:00:26;;;;;;;5.50;3.30;;;;;;;18.23;42.67;100902.37;1497444;94;21117;-50
2021/09/24 11:03:11;;;;;;;3.35;2.70;;;;;;;18.21;42.70;100898.96;1508145;94;21057;-49
2021/09/24 11:06:09;;;;;;;5.70;3.17;;;;;;;18.20;42.79;100897.23;1507668;94;21088;-51
2021/09/24 11:08:39;;;;;;;6.03;3.70;;;;;;;18.20;42.96;100919.63;1510235;94;21090;-50
2021/09/24 11:11:23;;;;;;;3.50;2.90;;;;;;;18.21;43.22;100931.89;1510735;94;21613;-50
2021/09/24 11:13:55;;;;;;;4.70;3.02;;;;;;;18.24;43.30;100926.44;1509334;94;21622;-49
2021/09/24 11:16:25;;;;;;;;;;;;;;;18.25;43.05;100949.23;1486185;96;21797;-50
2021/09/24 11:18:59;;;;;;;6.17;3.92;;;;;;;18.25;42.96;100946.61;1484199;96;20151;-50
2021/09/24 11:21:39;;;;;;;11.30;3.10;;;;;;;18.26;42.91;100940.42;1472053;96;21081;-50
2021/09/24 11:24:40;;;;;;;3.58;3.12;;;;;;;18.27;43.02;100936.84;1446276;98;21102;-50
2021/09/24 11:27:14;;;;;;;5.03;3.62;;;;;;;18.27;43.15;100941.66;1399903;101;21148;-50
2021/09/24 11:30:04;;;;;;;4.80;3.17;;;;;;;18.29;43.58;100936.30;1381776;103;21093;-50
2021/09/24 11:32:39;;;;;;;3.77;3.27;;;;;;;18.29;43.75;100932.34;1413901;101;21103;-51
2021/09/24 11:35:08;;;;;;;3.77;3.25;;;;;;;18.30;44.10;100938.02;1382794;101;21133;-50
2021/09/24 11:37:37;;;;;;;3.22;3.02;;;;;;;18.29;44.38;100934.98;1369266;103;21106;-50